Terminal Aerodrome Forecast
Issued by NWS Charleston, WV

Current Version | Previous Version | Text Only | Print | Product List | Glossary Off
Versions: 1 2 3 4 5 6 7 8 9 10 11 12 13 14 15 16 17 18 19 20 21 22

525
FTUS41 KRLX 300222 AAA
TAFCRW
TAF AMD
KCRW 300222Z 3002/3024 VRB04KT P6SM BKN150
     FM301600 10004KT P6SM OVC040
     FM302000 13004KT 6SM SHRA BR OVC030=

USA.gov is the U.S. government's official web portal to all federal, state and local government web resources and services.